Time;durP1;ratioP1;P1;durP2;ratioP2;P2;SDS_P1;SDS_P2;PMS_P1;PMS_P2;Temp;Humidity;BMP_temperature;BMP_pressure;BME280_temperature;BME280_humidity;BME280_pressure;Samples;Min_cycle;Max_cycle;Signal;HPM_P1;HPM_P2
2023/09/26 00:00:31;;;;;;;3.05;1.60;;;19.70;99.80;;;;;;5031812;28;20034;-43
2023/09/26 00:02:57;;;;;;;2.05;1.30;;;19.70;99.80;;;;;;5032107;28;20075;-39
2023/09/26 00:05:23;;;;;;;4.82;1.15;;;19.70;99.70;;;;;;5031953;28;20024;-38
2023/09/26 00:07:49;;;;;;;2.40;1.67;;;19.70;99.70;;;;;;5031816;28;20025;-41
2023/09/26 00:10:16;;;;;;;4.20;1.48;;;19.70;99.70;;;;;;5031851;28;20107;-36
2023/09/26 00:12:42;;;;;;;3.75;1.50;;;19.70;99.70;;;;;;5032121;28;20028;-39
2023/09/26 00:15:08;;;;;;;2.95;1.40;;;19.70;99.70;;;;;;5031558;28;20030;-39
2023/09/26 00:17:35;;;;;;;2.33;1.52;;;19.70;99.70;;;;;;5031599;28;20049;-39
2023/09/26 00:20:00;;;;;;;2.42;1.40;;;19.60;99.70;;;;;;5031681;28;20026;-36
2023/09/26 00:22:26;;;;;;;3.67;1.42;;;19.60;99.70;;;;;;5031660;28;20041;-41
2023/09/26 00:24:52;;;;;;;2.40;1.48;;;19.60;99.70;;;;;;5031489;28;20026;-37
2023/09/26 00:27:18;;;;;;;4.35;1.52;;;19.60;99.60;;;;;;5031321;28;20086;-40
2023/09/26 00:29:44;;;;;;;2.50;1.45;;;19.60;99.60;;;;;;5031536;28;20108;-37
2023/09/26 00:32:11;;;;;;;3.15;1.30;;;19.60;99.90;;;;;;5031511;28;20032;-38
2023/09/26 00:34:36;;;;;;;2.13;1.33;;;19.60;99.70;;;;;;5031232;28;20491;-39
2023/09/26 00:37:03;;;;;;;2.03;1.35;;;19.60;99.60;;;;;;5031206;28;20037;-41
2023/09/26 00:39:29;;;;;;;2.30;1.42;;;19.60;99.60;;;;;;5031381;28;20383;-39
2023/09/26 00:41:55;;;;;;;1.98;1.30;;;19.60;99.60;;;;;;5031288;28;20021;-43
2023/09/26 00:44:21;;;;;;;1.85;1.30;;;19.60;99.60;;;;;;5031304;28;20029;-38
2023/09/26 00:46:47;;;;;;;4.25;1.40;;;19.60;99.60;;;;;;5013301;28;20033;-41
2023/09/26 00:49:13;;;;;;;2.08;1.20;;;19.60;99.60;;;;;;5031376;28;20068;-37
2023/09/26 00:51:39;;;;;;;3.15;1.52;;;19.60;99.60;;;;;;5031306;28;20479;-40
2023/09/26 00:54:06;;;;;;;1.63;1.35;;;19.60;99.60;;;;;;5031234;28;20029;-37
2023/09/26 00:56:32;;;;;;;2.88;1.50;;;19.60;99.60;;;;;;5030894;28;20387;-37
2023/09/26 00:59:00;;;;;;;3.15;1.50;;;19.60;99.60;;;;;;5031181;28;20112;-38
2023/09/26 01:01:29;;;;;;;3.13;1.58;;;19.60;99.60;;;;;;5035408;28;20441;-38
2023/09/26 01:03:56;;;;;;;1.70;1.27;;;19.60;99.60;;;;;;5035205;28;20096;-39
2023/09/26 01:06:21;;;;;;;3.03;1.50;;;19.50;99.50;;;;;;5035079;28;20028;-39
2023/09/26 01:08:47;;;;;;;1.95;1.50;;;19.60;99.60;;;;;;5035244;28;20104;-39
2023/09/26 01:11:13;;;;;;;3.03;1.48;;;19.60;99.50;;;;;;5035032;28;20079;-38
2023/09/26 01:13:39;;;;;;;7.20;1.77;;;19.50;99.50;;;;;;5035062;28;20033;-38
2023/09/26 01:16:15;;;;;;;2.50;1.52;;;19.50;99.50;;;;;;5034775;28;20548;-38
2023/09/26 01:18:41;;;;;;;2.60;1.27;;;19.50;99.50;;;;;;5034929;28;20029;-39
2023/09/26 01:21:07;;;;;;;1.83;1.20;;;19.50;99.50;;;;;;5034866;28;20026;-39
2023/09/26 01:23:36;;;;;;;1.90;1.40;;;19.50;99.50;;;;;;5034900;28;20032;-45
2023/09/26 01:26:02;;;;;;;2.00;1.20;;;19.50;99.50;;;;;;5034713;28;20018;-38
2023/09/26 01:28:28;;;;;;;2.22;1.23;;;19.50;99.50;;;;;;5034862;28;20033;-40
2023/09/26 01:30:53;;;;;;;2.47;1.42;;;19.50;99.40;;;;;;5034789;28;20108;-36
2023/09/26 01:33:21;;;;;;;2.50;1.60;;;19.50;99.40;;;;;;5034687;28;20364;-41
2023/09/26 01:35:48;;;;;;;2.65;1.40;;;19.50;99.70;;;;;;5034489;28;20112;-36
2023/09/26 01:38:14;;;;;;;4.38;1.50;;;19.50;99.40;;;;;;5034563;28;20030;-40
2023/09/26 01:40:43;;;;;;;3.15;1.40;;;19.50;99.40;;;;;;5034723;28;20026;-38
2023/09/26 01:43:08;;;;;;;3.13;1.55;;;19.50;99.40;;;;;;5034720;28;20393;-46
2023/09/26 01:45:34;;;;;;;2.05;1.42;;;19.50;99.40;;;;;;5034245;28;20029;-43
2023/09/26 01:48:00;;;;;;;2.95;1.63;;;19.50;99.40;;;;;;5036295;28;20034;-38
2023/09/26 01:50:28;;;;;;;2.58;1.50;;;19.40;99.40;;;;;;5036372;28;20033;-38
2023/09/26 01:52:53;;;;;;;3.90;1.50;;;19.50;99.40;;;;;;5035450;28;20360;-38
2023/09/26 01:55:22;;;;;;;2.40;1.45;;;19.40;99.40;;;;;;5034425;28;20032;-39
2023/09/26 01:57:49;;;;;;;3.33;1.40;;;19.40;99.40;;;;;;5034120;28;20021;-38
2023/09/26 02:00:16;;;;;;;2.13;1.23;;;19.40;99.40;;;;;;5034330;28;20032;-39
2023/09/26 02:02:43;;;;;;;2.85;1.90;;;19.50;99.40;;;;;;5034230;28;20025;-38
2023/09/26 02:05:10;;;;;;;2.30;1.50;;;19.50;99.30;;;;;;5033943;28;20045;-38
2023/09/26 02:07:36;;;;;;;2.63;1.40;;;19.40;99.30;;;;;;5033991;28;20033;-38
2023/09/26 02:10:03;;;;;;;2.03;1.30;;;19.40;99.30;;;;;;5034088;28;20025;-39
2023/09/26 02:12:34;;;;;;;2.00;1.35;;;19.40;99.30;;;;;;5032656;28;20101;-36
2023/09/26 02:15:05;;;;;;;2.92;1.70;;;19.40;99.30;;;;;;5033073;28;20033;-39
2023/09/26 02:17:33;;;;;;;1.92;1.42;;;19.40;99.30;;;;;;5034171;28;20517;-38
2023/09/26 02:20:00;;;;;;;1.38;1.13;;;19.40;99.30;;;;;;5033797;28;20443;-38
2023/09/26 02:22:25;;;;;;;2.03;1.20;;;19.40;99.30;;;;;;5034010;28;20036;-38
2023/09/26 02:24:52;;;;;;;2.33;1.58;;;19.40;99.30;;;;;;5033689;28;20112;-38
2023/09/26 02:27:17;;;;;;;1.52;1.30;;;19.40;99.30;;;;;;5033670;28;20025;-39
2023/09/26 02:29:44;;;;;;;2.90;1.33;;;19.40;99.30;;;;;;5033728;28;20036;-39
2023/09/26 02:32:10;;;;;;;2.28;1.48;;;19.40;99.20;;;;;;5033623;28;20510;-38
2023/09/26 02:34:36;;;;;;;2.30;1.25;;;19.40;99.20;;;;;;5033479;28;20025;-38
2023/09/26 02:37:02;;;;;;;2.08;1.10;;;19.40;99.20;;;;;;5033336;28;20040;-41
2023/09/26 02:39:28;;;;;;;1.40;1.20;;;19.30;99.20;;;;;;5033528;28;20029;-39
2023/09/26 02:41:53;;;;;;;3.17;1.52;;;19.30;99.60;;;;;;5033450;28;20026;-36
2023/09/26 02:44:19;;;;;;;2.40;1.50;;;19.40;99.30;;;;;;5033476;28;20025;-39
2023/09/26 02:46:45;;;;;;;2.25;1.30;;;19.40;99.20;;;;;;5033040;28;20033;-36
2023/09/26 02:49:10;;;;;;;2.38;1.60;;;19.30;99.20;;;;;;5033245;28;20115;-38
2023/09/26 02:51:39;;;;;;;2.35;1.58;;;19.30;99.20;;;;;;5033488;28;20022;-38
2023/09/26 02:54:05;;;;;;;2.08;1.40;;;19.30;99.20;;;;;;5033290;28;20094;-36
2023/09/26 02:56:30;;;;;;;2.20;1.52;;;19.30;99.20;;;;;;5033342;28;20063;-36
2023/09/26 02:58:56;;;;;;;2.95;1.35;;;19.30;99.20;;;;;;5033079;28;20537;-35
2023/09/26 03:01:22;;;;;;;3.15;1.10;;;19.30;99.20;;;;;;5033003;28;20025;-39
2023/09/26 03:03:48;;;;;;;2.53;1.30;;;19.30;99.10;;;;;;5032997;28;20418;-42
2023/09/26 03:06:13;;;;;;;2.85;1.48;;;19.30;99.20;;;;;;5032829;28;20029;-40
2023/09/26 03:08:39;;;;;;;2.28;1.20;;;19.30;99.20;;;;;;5033041;28;20021;-37
2023/09/26 03:11:05;;;;;;;2.33;1.25;;;19.30;99.20;;;;;;5032861;28;20079;-38
2023/09/26 03:13:33;;;;;;;2.22;1.30;;;19.30;99.10;;;;;;5032850;28;20036;-36
2023/09/26 03:16:00;;;;;;;2.17;1.38;;;19.30;99.10;;;;;;5032539;28;20025;-39
2023/09/26 03:18:26;;;;;;;3.50;1.40;;;19.30;99.10;;;;;;5032570;28;20112;-36
2023/09/26 03:20:56;;;;;;;4.13;1.20;;;19.30;99.10;;;;;;5032791;28;20021;-38
2023/09/26 03:23:22;;;;;;;2.83;1.50;;;19.30;99.10;;;;;;5032255;28;20017;-36
2023/09/26 03:25:48;;;;;;;4.70;1.58;;;19.30;99.50;;;;;;5032400;28;20017;-37
2023/09/26 03:28:13;;;;;;;2.25;1.30;;;19.20;99.10;;;;;;5032560;28;20032;-36
2023/09/26 03:30:43;;;;;;;1.50;1.20;;;19.20;99.10;;;;;;5032393;28;20022;-37
2023/09/26 03:33:10;;;;;;;3.17;1.35;;;19.20;99.10;;;;;;5032515;28;20041;-38
2023/09/26 03:35:36;;;;;;;2.95;1.30;;;19.20;99.10;;;;;;5032218;28;20407;-38
2023/09/26 03:38:01;;;;;;;2.08;1.10;;;19.20;99.10;;;;;;5032353;28;20118;-38
2023/09/26 03:40:28;;;;;;;2.28;1.27;;;19.20;99.10;;;;;;5032481;28;20018;-38
2023/09/26 03:42:54;;;;;;;2.20;1.27;;;19.20;99.10;;;;;;5032336;28;20056;-38
2023/09/26 03:45:21;;;;;;;1.90;1.15;;;19.20;99.10;;;;;;5031746;28;20048;-39
2023/09/26 03:47:47;;;;;;;1.70;1.30;;;19.20;99.00;;;;;;5032901;28;20079;-39
2023/09/26 03:50:13;;;;;;;2.72;1.35;;;19.20;99.00;;;;;;5032237;28;20068;-41
2023/09/26 03:52:38;;;;;;;1.88;1.30;;;19.20;99.10;;;;;;5032167;28;20034;-41
2023/09/26 03:55:04;;;;;;;6.18;1.52;;;19.20;99.00;;;;;;5031882;28;20037;-36
2023/09/26 03:57:31;;;;;;;1.48;1.15;;;19.20;99.30;;;;;;5031912;28;20029;-39
2023/09/26 03:59:57;;;;;;;2.13;1.27;;;19.20;99.00;;;;;;5031851;28;20044;-38
2023/09/26 04:02:22;;;;;;;2.15;1.40;;;19.20;99.00;;;;;;5032001;28;20026;-39
2023/09/26 04:04:48;;;;;;;2.30;1.00;;;19.20;99.00;;;;;;5031937;28;20023;-38
2023/09/26 04:07:14;;;;;;;3.38;1.30;;;19.20;99.00;;;;;;5031785;28;20360;-38
2023/09/26 04:09:40;;;;;;;2.17;1.10;;;19.20;99.00;;;;;;5014110;28;20080;-37
2023/09/26 04:12:06;;;;;;;1.90;1.20;;;19.10;98.90;;;;;;5031836;28;20057;-38
2023/09/26 04:14:32;;;;;;;3.60;1.50;;;19.10;98.90;;;;;;5032027;28;20037;-37
2023/09/26 04:16:57;;;;;;;1.92;1.27;;;19.10;98.90;;;;;;5031762;28;20080;-35
2023/09/26 04:19:23;;;;;;;3.35;1.25;;;19.10;98.90;;;;;;5031737;28;20032;-36
2023/09/26 04:21:52;;;;;;;2.28;1.40;;;19.10;98.90;;;;;;5031632;28;20109;-39
2023/09/26 04:24:18;;;;;;;1.33;1.10;;;19.10;98.90;;;;;;5031528;28;20032;-39
2023/09/26 04:26:44;;;;;;;1.98;1.20;;;19.10;98.90;;;;;;5031349;28;20022;-36
2023/09/26 04:29:10;;;;;;;5.70;1.20;;;19.10;98.90;;;;;;5031324;28;20026;-38
2023/09/26 04:31:36;;;;;;;2.55;1.20;;;19.10;98.90;;;;;;5031490;28;20022;-40
2023/09/26 04:34:01;;;;;;;2.53;1.27;;;19.10;98.90;;;;;;5030733;28;20036;-39
2023/09/26 04:36:29;;;;;;;3.80;1.08;;;19.10;98.90;;;;;;5031205;28;20037;-39
2023/09/26 04:38:54;;;;;;;2.35;1.30;;;19.10;98.80;;;;;;5031356;28;20022;-37
2023/09/26 04:41:20;;;;;;;1.42;1.10;;;19.10;98.80;;;;;;5031387;28;20028;-38
2023/09/26 04:43:46;;;;;;;2.40;1.27;;;19.10;98.80;;;;;;5031281;28;20412;-37
2023/09/26 04:46:12;;;;;;;1.63;1.17;;;19.10;98.80;;;;;;5030989;28;20041;-37
2023/09/26 04:48:42;;;;;;;1.73;1.20;;;19.10;98.80;;;;;;5031435;28;20056;-41
2023/09/26 04:51:13;;;;;;;3.42;1.20;;;19.10;98.80;;;;;;5031314;28;20582;-37
2023/09/26 04:53:38;;;;;;;2.35;1.30;;;19.00;98.80;;;;;;5031308;28;20114;-40
2023/09/26 04:56:05;;;;;;;2.20;1.13;;;19.00;98.80;;;;;;5030963;28;20072;-38
2023/09/26 04:58:32;;;;;;;2.45;1.50;;;19.00;98.80;;;;;;5031148;28;20246;-35
2023/09/26 05:01:00;;;;;;;1.90;1.13;;;19.00;98.80;;;;;;5031193;28;20029;-40
2023/09/26 05:03:27;;;;;;;3.95;1.25;;;19.10;98.80;;;;;;5031192;28;20028;-43
2023/09/26 05:05:52;;;;;;;2.90;1.15;;;19.00;98.70;;;;;;5030915;28;20017;-36
2023/09/26 05:08:18;;;;;;;3.25;1.45;;;19.00;98.70;;;;;;5031153;28;20386;-39
2023/09/26 05:10:44;;;;;;;1.85;1.20;;;19.00;98.70;;;;;;5031480;28;20032;-40
2023/09/26 05:13:09;;;;;;;1.88;1.20;;;19.00;98.70;;;;;;5031138;28;20079;-37
2023/09/26 05:15:35;;;;;;;2.10;1.30;;;19.00;98.70;;;;;;5030817;28;20096;-39
2023/09/26 05:18:02;;;;;;;2.65;1.45;;;19.00;98.80;;;;;;5030925;28;20038;-40
2023/09/26 05:20:29;;;;;;;1.80;1.30;;;19.00;98.80;;;;;;5031178;28;20022;-37
2023/09/26 05:22:54;;;;;;;1.70;1.02;;;19.00;98.70;;;;;;5031141;28;20033;-44
2023/09/26 05:25:20;;;;;;;1.67;1.20;;;19.00;98.70;;;;;;5030705;28;20029;-41
2023/09/26 05:27:46;;;;;;;1.63;1.23;;;19.00;98.70;;;;;;5030894;28;20036;-42
2023/09/26 05:30:13;;;;;;;2.83;1.63;;;19.00;98.70;;;;;;5030982;28;20104;-39
2023/09/26 05:32:40;;;;;;;2.95;1.20;;;19.00;98.70;;;;;;5030965;28;20028;-45
2023/09/26 05:35:07;;;;;;;1.55;1.20;;;18.90;98.70;;;;;;5030676;28;20022;-37
2023/09/26 05:37:36;;;;;;;1.88;1.38;;;18.90;98.60;;;;;;5030705;28;20040;-37
2023/09/26 05:40:06;;;;;;;2.25;1.20;;;18.90;98.60;;;;;;5030754;28;20025;-39
2023/09/26 05:42:32;;;;;;;4.43;1.42;;;19.00;98.70;;;;;;5013261;28;20502;-38
2023/09/26 05:44:58;;;;;;;2.42;1.40;;;18.90;99.00;;;;;;5030695;28;20068;-43
2023/09/26 05:47:24;;;;;;;2.75;1.45;;;18.90;98.60;;;;;;5035351;28;20053;-37
2023/09/26 05:49:50;;;;;;;2.72;1.30;;;18.90;98.60;;;;;;5036452;28;20410;-35
2023/09/26 05:52:17;;;;;;;2.33;1.58;;;18.90;98.60;;;;;;5034788;28;20029;-38
2023/09/26 05:54:42;;;;;;;2.63;1.40;;;18.90;98.60;;;;;;5034303;28;20057;-39
2023/09/26 05:57:08;;;;;;;1.35;1.15;;;18.90;98.60;;;;;;5034065;28;20049;-38
2023/09/26 05:59:34;;;;;;;2.10;1.27;;;18.90;98.60;;;;;;5034316;28;20021;-39
2023/09/26 06:01:59;;;;;;;2.35;1.30;;;18.90;98.60;;;;;;5034258;28;20021;-38
2023/09/26 06:04:25;;;;;;;1.60;1.10;;;18.90;98.60;;;;;;5034184;28;20018;-38
2023/09/26 06:06:51;;;;;;;4.82;1.10;;;18.90;98.60;;;;;;5033912;28;20024;-38
2023/09/26 06:09:16;;;;;;;2.05;1.40;;;18.90;98.60;;;;;;5034075;28;20152;-38
2023/09/26 06:11:42;;;;;;;3.72;1.20;;;18.90;98.60;;;;;;5034017;28;20053;-38
2023/09/26 06:14:07;;;;;;;1.65;1.05;;;18.90;98.60;;;;;;5033991;28;20486;-36
2023/09/26 06:16:34;;;;;;;1.42;1.20;;;18.90;98.60;;;;;;5033767;28;20026;-38
2023/09/26 06:18:59;;;;;;;2.13;1.23;;;19.00;98.60;;;;;;5033957;28;20025;-36
2023/09/26 06:21:25;;;;;;;3.92;1.10;;;19.00;98.60;;;;;;5033795;28;20024;-38
2023/09/26 06:23:51;;;;;;;2.55;1.48;;;19.00;98.70;;;;;;5033755;28;20044;-38
2023/09/26 06:26:16;;;;;;;2.55;1.38;;;19.00;98.60;;;;;;5033591;28;20029;-36
2023/09/26 06:28:42;;;;;;;3.55;1.23;;;19.00;98.60;;;;;;5015981;28;20394;-43
2023/09/26 06:31:09;;;;;;;1.85;1.40;;;19.10;98.70;;;;;;5033832;28;20032;-36
2023/09/26 06:33:36;;;;;;;2.00;1.25;;;19.00;98.60;;;;;;5033685;28;20036;-39
2023/09/26 06:36:10;;;;;;;2.00;1.13;;;19.10;98.60;;;;;;5033280;28;20398;-39
2023/09/26 06:38:36;;;;;;;;;;;19.10;98.60;;;;;;5033950;28;20068;-38
2023/09/26 06:41:02;;;;;;;3.15;1.48;;;19.10;98.60;;;;;;5033464;28;19948;-37
2023/09/26 06:43:30;;;;;;;1.65;1.20;;;19.10;98.60;;;;;;5033790;28;20026;-38
2023/09/26 06:45:56;;;;;;;2.33;1.20;;;19.20;98.70;;;;;;5033283;28;20033;-41
2023/09/26 06:48:21;;;;;;;2.50;1.30;;;19.10;98.60;;;;;;5033377;28;20514;-39
2023/09/26 06:50:47;;;;;;;3.53;1.02;;;19.20;98.70;;;;;;5033348;28;20029;-38
2023/09/26 06:53:12;;;;;;;1.40;1.13;;;19.20;98.60;;;;;;5033357;28;20522;-38
2023/09/26 06:55:39;;;;;;;1.45;1.10;;;19.20;98.60;;;;;;5033007;28;20029;-39
2023/09/26 06:58:08;;;;;;;1.60;1.10;;;19.30;98.70;;;;;;5032461;28;20052;-37
2023/09/26 07:00:40;;;;;;;2.72;1.40;;;19.30;98.70;;;;;;5033342;28;20048;-38
2023/09/26 07:03:05;;;;;;;2.10;1.30;;;19.30;99.00;;;;;;5033123;28;20440;-38
2023/09/26 07:05:31;;;;;;;1.35;1.08;;;19.30;98.70;;;;;;5032742;28;20534;-39
2023/09/26 07:07:57;;;;;;;1.77;1.23;;;19.30;98.70;;;;;;5033000;28;20033;-38
2023/09/26 07:10:23;;;;;;;1.30;1.00;;;19.40;98.70;;;;;;5032943;28;20021;-41
2023/09/26 07:12:50;;;;;;;1.83;1.20;;;19.30;99.00;;;;;;5032875;28;20056;-38
2023/09/26 07:15:15;;;;;;;2.50;1.35;;;19.40;98.70;;;;;;5032686;28;20068;-38
2023/09/26 07:17:41;;;;;;;1.30;1.00;;;19.40;98.60;;;;;;5032545;28;20029;-38
2023/09/26 07:20:13;;;;;;;3.80;1.40;;;19.40;99.00;;;;;;5032742;28;20048;-37
2023/09/26 07:22:40;;;;;;;2.38;1.10;;;19.50;98.70;;;;;;5032764;28;20022;-38
2023/09/26 07:25:06;;;;;;;2.25;1.30;;;19.50;98.70;;;;;;5032456;28;20021;-36
2023/09/26 07:27:32;;;;;;;1.92;1.15;;;19.50;98.70;;;;;;5032596;28;20025;-35
2023/09/26 07:29:57;;;;;;;1.35;0.98;;;19.50;98.70;;;;;;5032649;28;20026;-36
2023/09/26 07:32:23;;;;;;;1.98;1.30;;;19.50;98.80;;;;;;5032411;28;20499;-40
2023/09/26 07:34:49;;;;;;;3.00;1.10;;;19.50;98.80;;;;;;5032461;28;20060;-36
2023/09/26 07:37:15;;;;;;;1.80;1.15;;;19.60;98.80;;;;;;5032269;28;20053;-39
2023/09/26 07:39:48;;;;;;;2.00;1.17;;;19.60;98.80;;;;;;5032410;28;20175;-39
2023/09/26 07:42:14;;;;;;;1.30;0.90;;;19.60;98.80;;;;;;5032443;28;20482;-38
2023/09/26 07:44:40;;;;;;;3.70;1.02;;;19.60;98.80;;;;;;5032199;28;20309;-38
2023/09/26 07:47:05;;;;;;;1.80;1.33;;;19.60;98.70;;;;;;5031943;28;20025;-41
2023/09/26 07:49:31;;;;;;;1.73;1.02;;;19.60;98.70;;;;;;5032197;28;20021;-40
2023/09/26 07:51:57;;;;;;;1.42;0.98;;;19.60;98.80;;;;;;5032109;28;20510;-41
2023/09/26 07:54:22;;;;;;;1.08;0.90;;;19.70;98.80;;;;;;5032039;28;20112;-37
2023/09/26 07:56:48;;;;;;;1.33;1.08;;;19.70;98.80;;;;;;5031881;28;20017;-38
2023/09/26 07:59:14;;;;;;;1.90;1.20;;;19.70;98.80;;;;;;5031925;28;20037;-39
2023/09/26 08:01:40;;;;;;;2.25;1.30;;;19.70;98.80;;;;;;5031851;28;20022;-39
2023/09/26 08:04:07;;;;;;;2.47;1.20;;;19.70;98.80;;;;;;5031943;28;20026;-37
2023/09/26 08:06:33;;;;;;;1.50;1.10;;;19.80;98.90;;;;;;5031783;28;20026;-42
2023/09/26 08:08:58;;;;;;;1.80;1.15;;;19.80;98.90;;;;;;5031875;28;20018;-39
2023/09/26 08:11:27;;;;;;;2.95;1.33;;;19.80;98.90;;;;;;5031864;28;20033;-39
2023/09/26 08:13:54;;;;;;;1.20;0.90;;;19.80;98.90;;;;;;5031756;28;20021;-38
2023/09/26 08:16:21;;;;;;;2.33;1.27;;;19.80;98.90;;;;;;5031436;28;20079;-40
2023/09/26 08:18:49;;;;;;;3.38;1.23;;;19.80;98.90;;;;;;5031634;28;20079;-36
2023/09/26 08:21:15;;;;;;;1.77;1.30;;;19.80;98.90;;;;;;5031685;28;20108;-37
2023/09/26 08:23:40;;;;;;;1.45;0.95;;;19.90;98.90;;;;;;5031626;28;20033;-37
2023/09/26 08:26:10;;;;;;;2.28;1.20;;;19.90;99.00;;;;;;5031386;28;20037;-40
2023/09/26 08:28:36;;;;;;;2.65;1.23;;;19.90;99.00;;;;;;5031559;28;20017;-39
2023/09/26 08:31:14;;;;;;;1.48;1.10;;;19.90;99.00;;;;;;5031577;28;20101;-41
2023/09/26 08:33:40;;;;;;;1.70;1.17;;;19.90;99.00;;;;;;5031571;28;20394;-37
2023/09/26 08:36:20;;;;;;;1.40;1.00;;;19.90;99.00;;;;;;5031299;28;20026;-39
2023/09/26 08:38:48;;;;;;;1.40;0.93;;;20.00;99.00;;;;;;5031397;28;20029;-36
2023/09/26 08:41:16;;;;;;;1.25;0.90;;;20.10;99.00;;;;;;5031346;28;20053;-37
2023/09/26 08:43:43;;;;;;;1.40;1.10;;;20.00;99.00;;;;;;5031438;28;20383;-38
2023/09/26 08:46:10;;;;;;;1.80;0.98;;;20.10;99.00;;;;;;5013398;28;20075;-37
2023/09/26 08:48:35;;;;;;;1.50;0.93;;;20.10;99.00;;;;;;5031349;28;20083;-37
2023/09/26 08:51:02;;;;;;;1.70;1.10;;;20.10;99.00;;;;;;5031298;28;20029;-38
2023/09/26 08:53:29;;;;;;;1.52;0.98;;;20.20;99.10;;;;;;5031249;28;20435;-40
2023/09/26 08:55:54;;;;;;;1.90;1.00;;;20.20;99.10;;;;;;5030941;28;20083;-38
2023/09/26 08:58:21;;;;;;;1.83;1.20;;;20.20;99.10;;;;;;5031151;28;20033;-42
2023/09/26 09:00:47;;;;;;;1.52;0.88;;;20.20;99.10;;;;;;5031323;28;20088;-39
2023/09/26 09:03:13;;;;;;;2.00;0.88;;;20.30;99.10;;;;;;5031160;28;20511;-40
2023/09/26 09:05:40;;;;;;;1.70;1.05;;;20.30;99.10;;;;;;5030932;28;20113;-42
2023/09/26 09:08:16;;;;;;;1.58;1.00;;;20.30;99.10;;;;;;5031046;28;20021;-41
2023/09/26 09:10:55;;;;;;;1.67;1.33;;;20.30;99.00;;;;;;5031191;28;20017;-39
2023/09/26 09:13:34;;;;;;;1.60;1.10;;;20.30;99.10;;;;;;5031600;28;20517;-42
2023/09/26 09:16:14;;;;;;;1.63;1.10;;;20.40;99.10;;;;;;5030923;28;20028;-37
2023/09/26 09:18:48;;;;;;;1.30;0.90;;;20.40;99.10;;;;;;5030926;28;20041;-39
2023/09/26 09:21:31;;;;;;;2.50;1.10;;;20.40;99.40;;;;;;5033199;28;20071;-40
2023/09/26 09:24:04;;;;;;;1.35;1.00;;;20.40;99.10;;;;;;5035003;28;20030;-40
2023/09/26 09:26:32;;;;;;;2.33;0.88;;;20.40;99.10;;;;;;5034811;28;20477;-36
2023/09/26 09:29:14;;;;;;;2.28;1.00;;;20.40;99.10;;;;;;5034824;28;20102;-41
2023/09/26 09:31:40;;;;;;;1.20;1.00;;;20.50;99.10;;;;;;5034877;28;20026;-37
2023/09/26 09:34:05;;;;;;;1.92;1.10;;;20.50;99.10;;;;;;5035138;28;20394;-40
2023/09/26 09:36:31;;;;;;;1.50;1.00;;;20.50;99.10;;;;;;5034583;28;20090;-39
2023/09/26 09:38:56;;;;;;;1.85;1.10;;;20.50;99.10;;;;;;5035013;28;20083;-44
2023/09/26 09:41:22;;;;;;;1.75;0.98;;;20.50;99.10;;;;;;5035951;28;20033;-38
2023/09/26 09:43:48;;;;;;;2.20;1.30;;;20.50;99.10;;;;;;5035611;28;20030;-36
2023/09/26 09:46:16;;;;;;;1.40;0.82;;;20.50;99.10;;;;;;5034967;28;20112;-38
2023/09/26 09:48:44;;;;;;;1.63;1.02;;;20.60;99.10;;;;;;5034785;28;20044;-39
2023/09/26 09:51:15;;;;;;;1.60;1.25;;;20.60;99.10;;;;;;5034492;28;20032;-38
2023/09/26 09:53:45;;;;;;;1.45;0.90;;;20.60;99.10;;;;;;5034419;28;20105;-36
2023/09/26 09:56:18;;;;;;;1.35;0.90;;;20.60;99.10;;;;;;5034015;28;20025;-38
2023/09/26 09:58:49;;;;;;;1.33;1.00;;;20.60;99.10;;;;;;5034358;28;20512;-38
2023/09/26 10:01:16;;;;;;;1.83;0.90;;;20.60;99.10;;;;;;5034277;28;20074;-37
2023/09/26 10:03:42;;;;;;;1.90;1.02;;;20.60;99.10;;;;;;5034282;28;20097;-38
2023/09/26 10:06:08;;;;;;;1.17;0.82;;;20.60;99.10;;;;;;5016165;28;20176;-38
2023/09/26 10:08:35;;;;;;;1.75;1.02;;;20.60;99.10;;;;;;5034090;28;20025;-38
2023/09/26 10:11:04;;;;;;;1.52;0.95;;;20.60;99.20;;;;;;5034061;28;20040;-36
2023/09/26 10:13:30;;;;;;;1.38;0.85;;;20.70;99.50;;;;;;5033914;28;20035;-36
2023/09/26 10:16:03;;;;;;;1.65;1.08;;;20.70;99.20;;;;;;5033918;28;20021;-38
2023/09/26 10:18:29;;;;;;;2.65;0.90;;;20.70;99.20;;;;;;5033940;28;20045;-39
2023/09/26 10:20:55;;;;;;;3.47;0.90;;;20.70;99.20;;;;;;5033900;28;20386;-36
2023/09/26 10:23:22;;;;;;;1.15;0.98;;;20.70;99.20;;;;;;5033797;28;20033;-38
2023/09/26 10:25:47;;;;;;;1.20;0.80;;;20.70;99.20;;;;;;5033587;28;20025;-36
2023/09/26 10:28:16;;;;;;;1.40;0.90;;;20.70;99.20;;;;;;5033792;28;20091;-38
2023/09/26 10:30:45;;;;;;;1.48;1.00;;;20.70;99.20;;;;;;5033727;28;20109;-39
2023/09/26 10:33:11;;;;;;;1.30;0.90;;;20.80;99.20;;;;;;5032515;28;20037;-39
2023/09/26 10:35:43;;;;;;;1.55;1.10;;;20.80;99.30;;;;;;5033321;28;20033;-36
2023/09/26 10:38:18;;;;;;;2.03;1.08;;;20.80;99.20;;;;;;5033563;28;20128;-39
2023/09/26 10:40:47;;;;;;;1.15;0.88;;;20.80;99.30;;;;;;5033640;28;20036;-38
2023/09/26 10:43:16;;;;;;;1.52;0.90;;;20.80;99.20;;;;;;5033914;28;20020;-38
2023/09/26 10:45:44;;;;;;;1.27;0.90;;;20.80;99.30;;;;;;5033092;28;20029;-36
2023/09/26 10:48:10;;;;;;;2.00;1.10;;;20.80;99.60;;;;;;5033340;28;20052;-39
2023/09/26 10:50:36;;;;;;;2.22;1.10;;;20.80;99.30;;;;;;5033271;28;20542;-37
2023/09/26 10:53:01;;;;;;;1.08;0.80;;;20.80;99.20;;;;;;5033330;28;20031;-39
2023/09/26 10:55:27;;;;;;;2.33;1.40;;;20.80;99.30;;;;;;5033119;28;20034;-38
2023/09/26 10:57:53;;;;;;;2.08;1.25;;;20.80;99.30;;;;;;5033211;28;20487;-36
2023/09/26 11:00:18;;;;;;;1.00;0.82;;;20.80;99.30;;;;;;5033228;28;20021;-37
2023/09/26 11:02:47;;;;;;;1.38;0.90;;;20.80;99.30;;;;;;5033053;28;20021;-39
2023/09/26 11:05:14;;;;;;;1.40;1.13;;;20.80;99.30;;;;;;5032853;28;20555;-39
2023/09/26 11:07:42;;;;;;;2.50;1.10;;;20.90;99.30;;;;;;5032983;28;20120;-39
2023/09/26 11:10:12;;;;;;;1.50;0.90;;;20.90;99.30;;;;;;5032954;28;20025;-35
2023/09/26 11:12:38;;;;;;;1.60;0.95;;;20.90;99.30;;;;;;5032920;28;20474;-38
2023/09/26 11:15:04;;;;;;;1.15;0.80;;;20.90;99.30;;;;;;5032781;28;20025;-41
2023/09/26 11:17:32;;;;;;;1.55;1.00;;;20.90;99.40;;;;;;5032620;28;20029;-39
2023/09/26 11:20:05;;;;;;;1.42;1.00;;;20.90;99.30;;;;;;5032961;28;20036;-36
2023/09/26 11:22:41;;;;;;;1.10;0.80;;;20.90;99.40;;;;;;5032875;28;20025;-38
2023/09/26 11:25:08;;;;;;;2.38;0.90;;;21.00;99.40;;;;;;5032616;28;20060;-38
2023/09/26 11:27:42;;;;;;;2.13;1.17;;;20.90;99.30;;;;;;5032665;28;20026;-41
2023/09/26 11:30:12;;;;;;;1.35;1.00;;;20.90;99.40;;;;;;5032662;28;20032;-36
2023/09/26 11:32:39;;;;;;;1.92;0.90;;;21.00;99.40;;;;;;5032857;28;20044;-36
2023/09/26 11:35:06;;;;;;;1.17;0.80;;;21.00;99.40;;;;;;5032286;28;20025;-38
2023/09/26 11:37:31;;;;;;;1.10;0.70;;;21.00;99.40;;;;;;5032333;28;20109;-44
2023/09/26 11:39:57;;;;;;;2.13;0.88;;;21.00;99.40;;;;;;5032452;28;20104;-40
2023/09/26 11:42:23;;;;;;;1.20;0.93;;;21.00;99.40;;;;;;5032755;28;20038;-39
2023/09/26 11:44:56;;;;;;;1.67;0.95;;;21.00;99.40;;;;;;5031924;28;20075;-38
2023/09/26 11:47:22;;;;;;;1.10;0.90;;;21.00;99.40;;;;;;5032304;28;20030;-40
2023/09/26 11:49:49;;;;;;;1.45;0.90;;;21.00;99.40;;;;;;5032262;28;20021;-38
2023/09/26 11:52:16;;;;;;;1.10;0.75;;;21.00;99.30;;;;;;5032221;28;20025;-35
2023/09/26 11:54:41;;;;;;;1.70;0.90;;;21.00;99.40;;;;;;5032047;28;20109;-38
2023/09/26 11:57:08;;;;;;;1.50;0.93;;;21.00;99.50;;;;;;5031851;28;20550;-38
2023/09/26 11:59:33;;;;;;;1.55;1.00;;;21.00;99.40;;;;;;5032078;28;20037;-39
2023/09/26 12:02:00;;;;;;;1.20;0.80;;;21.00;99.40;;;;;;5031997;28;20018;-37
2023/09/26 12:04:26;;;;;;;1.30;0.85;;;21.00;99.50;;;;;;5032219;28;20463;-38
2023/09/26 12:06:52;;;;;;;1.13;0.70;;;21.00;99.40;;;;;;5031795;28;20498;-37
2023/09/26 12:09:20;;;;;;;1.30;0.90;;;21.00;99.40;;;;;;5031849;28;20070;-38
2023/09/26 12:11:51;;;;;;;1.77;0.88;;;21.00;99.50;;;;;;5031881;28;20304;-39
2023/09/26 12:14:17;;;;;;;1.33;0.93;;;21.00;99.40;;;;;;5031996;28;20040;-41
2023/09/26 12:16:44;;;;;;;1.30;0.90;;;21.00;99.40;;;;;;5031682;28;20033;-41
2023/09/26 12:19:10;;;;;;;1.00;0.70;;;21.00;99.40;;;;;;5031664;28;20673;-37
2023/09/26 12:21:36;;;;;;;1.30;0.98;;;21.00;99.40;;;;;;5031692;28;20030;-39
2023/09/26 12:24:01;;;;;;;0.98;0.70;;;21.00;99.40;;;;;;5031513;28;20361;-37
2023/09/26 12:26:28;;;;;;;1.50;0.70;;;21.00;99.60;;;;;;5031369;28;20025;-39
2023/09/26 12:28:53;;;;;;;0.98;0.70;;;21.00;99.40;;;;;;5031613;28;20022;-39
2023/09/26 12:31:19;;;;;;;1.75;0.90;;;21.00;99.30;;;;;;5031595;28;20033;-38
2023/09/26 12:33:44;;;;;;;1.30;0.90;;;21.00;99.40;;;;;;5031468;28;20032;-39
2023/09/26 12:36:10;;;;;;;1.17;0.68;;;21.00;99.30;;;;;;5031300;28;20036;-39
2023/09/26 12:38:36;;;;;;;1.42;1.10;;;21.10;99.30;;;;;;5031305;28;20135;-45
2023/09/26 12:41:02;;;;;;;1.42;0.98;;;21.00;99.30;;;;;;5031435;28;20033;-38
2023/09/26 12:43:28;;;;;;;1.10;0.60;;;21.10;99.30;;;;;;5031405;28;20018;-45
2023/09/26 12:45:53;;;;;;;1.15;0.90;;;21.10;99.40;;;;;;5030965;28;20037;-42